createdAt,value
2023-01-11T00:00:50.088Z,3.43
2023-01-11T00:03:20.326Z,2.70
2023-01-11T00:05:50.537Z,2.67
2023-01-11T00:08:22.445Z,2.60
2023-01-11T00:10:53.107Z,2.90
2023-01-11T00:13:23.140Z,3.30
2023-01-11T00:15:54.298Z,2.00
2023-01-11T00:18:24.549Z,3.03
2023-01-11T00:20:54.129Z,2.80
2023-01-11T00:23:24.049Z,2.87
2023-01-11T00:25:53.734Z,2.33
2023-01-11T00:28:23.139Z,2.30
2023-01-11T00:30:54.275Z,3.40
2023-01-11T00:33:24.489Z,2.90
2023-01-11T00:35:54.800Z,2.80
2023-01-11T00:38:42.876Z,2.87
2023-01-11T00:41:27.450Z,3.43
2023-01-11T00:44:15.064Z,2.20
2023-01-11T00:47:04.688Z,2.30
2023-01-11T00:49:34.779Z,2.60
2023-01-11T00:52:09.326Z,2.30
2023-01-11T00:54:39.880Z,2.20
2023-01-11T00:57:10.405Z,2.50
2023-01-11T00:59:41.129Z,2.90
2023-01-11T01:02:13.281Z,1.67
2023-01-11T01:04:43.849Z,2.63
2023-01-11T01:07:13.937Z,2.33
2023-01-11T01:09:44.073Z,2.67
2023-01-11T01:12:34.877Z,2.90
2023-01-11T01:15:04.442Z,2.80
2023-01-11T01:17:36.061Z,2.70
2023-01-11T01:20:07.113Z,2.20
2023-01-11T01:22:37.095Z,3.40
2023-01-11T01:25:07.582Z,2.73
2023-01-11T01:27:37.818Z,2.80
2023-01-11T01:30:09.534Z,2.90
2023-01-11T01:32:40.717Z,2.77
2023-01-11T01:35:12.160Z,3.40
2023-01-11T01:37:42.675Z,3.50
2023-01-11T01:40:14.503Z,3.73
2023-01-11T01:42:45.169Z,3.37
2023-01-11T01:45:24.306Z,3.50
2023-01-11T01:47:59.213Z,3.90
2023-01-11T01:50:32.336Z,3.13
2023-01-11T01:53:04.633Z,2.80
2023-01-11T01:55:37.289Z,3.27
2023-01-11T01:58:10.657Z,2.80
2023-01-11T02:00:41.704Z,3.13
2023-01-11T02:03:13.978Z,4.27
2023-01-11T02:05:43.443Z,3.57
2023-01-11T02:08:18.614Z,3.40
2023-01-11T02:10:48.403Z,2.90
2023-01-11T02:13:18.659Z,2.70
2023-01-11T02:16:08.163Z,3.17
2023-01-11T02:18:40.369Z,2.80
2023-01-11T02:21:23.938Z,2.50
2023-01-11T02:24:06.246Z,2.60
2023-01-11T02:27:00.819Z,2.70
2023-01-11T02:29:51.735Z,3.13
2023-01-11T02:32:28.109Z,2.80
2023-01-11T02:35:04.970Z,2.87
2023-01-11T02:37:40.097Z,3.10
2023-01-11T02:40:16.129Z,2.83
2023-01-11T02:43:09.908Z,3.57
2023-01-11T02:45:49.341Z,3.00
2023-01-11T02:48:24.929Z,3.80
2023-01-11T02:51:00.549Z,3.10
2023-01-11T02:53:34.733Z,2.83
2023-01-11T02:56:08.574Z,2.43
2023-01-11T02:58:40.875Z,2.23
2023-01-11T03:01:12.193Z,2.57
2023-01-11T03:03:41.896Z,2.67
2023-01-11T03:06:17.419Z,2.87
2023-01-11T03:09:16.633Z,2.67
2023-01-11T03:12:14.855Z,3.23
2023-01-11T03:14:52.817Z,2.60
2023-01-11T03:17:40.198Z,2.93
2023-01-11T03:20:13.296Z,2.40
2023-01-11T03:22:52.016Z,2.70
2023-01-11T03:25:25.519Z,2.00
2023-01-11T03:27:59.825Z,2.57
2023-01-11T03:30:36.612Z,2.27
2023-01-11T03:33:12.383Z,1.80
2023-01-11T03:35:45.792Z,2.80
2023-01-11T03:38:19.623Z,2.23
2023-01-11T03:40:51.593Z,2.13
2023-01-11T03:43:22.696Z,2.13
2023-01-11T03:45:56.204Z,2.67
2023-01-11T03:48:32.711Z,2.30
2023-01-11T03:51:03.879Z,1.80
2023-01-11T03:53:37.253Z,2.43
2023-01-11T03:56:11.008Z,3.00
2023-01-11T03:58:40.961Z,2.27
2023-01-11T04:01:11.287Z,3.60
2023-01-11T04:03:42.943Z,2.90
2023-01-11T04:06:13.894Z,2.40
2023-01-11T04:08:43.955Z,3.43
2023-01-11T04:11:13.878Z,2.53
2023-01-11T04:13:43.938Z,3.00
2023-01-11T04:16:14.202Z,2.40
2023-01-11T04:18:46.038Z,2.97
2023-01-11T04:21:16.311Z,2.60
2023-01-11T04:23:46.780Z,2.63
2023-01-11T04:26:17.832Z,2.47
2023-01-11T04:28:47.595Z,2.40
2023-01-11T04:31:18.083Z,2.77
2023-01-11T04:33:49.194Z,2.13
2023-01-11T04:36:19.333Z,2.60
2023-01-11T04:38:49.113Z,2.30
2023-01-11T04:41:36.499Z,2.10
2023-01-11T04:44:06.788Z,2.97
2023-01-11T04:46:36.759Z,2.80
2023-01-11T04:49:08.045Z,2.30
2023-01-11T04:51:38.257Z,2.43
2023-01-11T04:54:08.770Z,2.47
2023-01-11T04:56:38.759Z,2.00
2023-01-11T04:59:08.373Z,2.83
2023-01-11T05:01:38.674Z,2.57
2023-01-11T05:04:12.660Z,2.27
2023-01-11T05:06:43.587Z,3.07
2023-01-11T05:09:15.053Z,3.13
2023-01-11T05:11:45.436Z,3.13
2023-01-11T05:14:15.209Z,2.63
2023-01-11T05:16:45.378Z,2.70
2023-01-11T05:19:17.181Z,3.13
2023-01-11T05:21:47.449Z,2.70
2023-01-11T05:24:18.126Z,3.17
2023-01-11T05:26:50.310Z,3.40
2023-01-11T05:29:21.216Z,3.03
2023-01-11T05:31:51.595Z,2.20
2023-01-11T05:34:23.138Z,3.50
2023-01-11T05:36:52.964Z,3.33
2023-01-11T05:39:24.325Z,2.80
2023-01-11T05:41:54.049Z,3.07
2023-01-11T05:44:41.417Z,3.67
2023-01-11T05:47:11.369Z,3.90
2023-01-11T05:49:42.757Z,3.80
2023-01-11T05:52:13.108Z,4.23
2023-01-11T05:54:43.797Z,4.43
2023-01-11T05:57:14.573Z,3.50
2023-01-11T05:59:44.755Z,4.93
2023-01-11T06:02:14.633Z,4.10
2023-01-11T06:04:46.911Z,3.60
2023-01-11T06:07:16.657Z,4.40
2023-01-11T06:09:47.273Z,5.40
2023-01-11T06:12:17.247Z,3.80
2023-01-11T06:14:47.479Z,4.47
2023-01-11T06:17:17.350Z,4.87
2023-01-11T06:19:49.878Z,5.50
2023-01-11T06:22:19.564Z,4.80
2023-01-11T06:24:49.836Z,6.13
2023-01-11T06:27:19.702Z,7.40
2023-01-11T06:29:50.145Z,6.57
2023-01-11T06:32:20.207Z,7.90
2023-01-11T06:34:52.179Z,8.40
2023-01-11T06:37:22.416Z,7.60
2023-01-11T06:39:53.102Z,7.33
2023-01-11T06:42:22.948Z,5.87
2023-01-11T06:44:52.902Z,6.13
2023-01-11T06:47:23.368Z,5.97
2023-01-11T06:49:54.662Z,5.87
2023-01-11T06:52:24.984Z,5.37
2023-01-11T06:54:54.652Z,4.60
2023-01-11T06:57:24.864Z,6.50
2023-01-11T06:59:54.857Z,6.50
2023-01-11T07:02:25.248Z,8.00
2023-01-11T07:04:57.113Z,5.93
2023-01-11T07:07:26.884Z,7.20
2023-01-11T07:09:57.140Z,5.70
2023-01-11T07:12:26.957Z,5.83
2023-01-11T07:14:56.343Z,5.00
2023-01-11T07:17:25.773Z,5.47
2023-01-11T07:19:57.468Z,4.90
2023-01-11T07:22:27.283Z,7.00
2023-01-11T07:24:56.913Z,6.43
2023-01-11T07:27:27.228Z,6.80
2023-01-11T07:30:00.236Z,7.13
2023-01-11T07:32:30.244Z,9.10
2023-01-11T07:35:01.856Z,7.27
2023-01-11T07:37:33.340Z,9.30
2023-01-11T07:40:03.921Z,9.90
2023-01-11T07:42:51.388Z,10.03
2023-01-11T07:45:21.962Z,7.20
2023-01-11T07:47:53.200Z,6.60
2023-01-11T07:50:24.632Z,6.50
2023-01-11T07:52:54.524Z,6.50
2023-01-11T07:55:25.163Z,6.50
2023-01-11T07:57:57.603Z,7.50
2023-01-11T08:00:28.988Z,6.90
2023-01-11T08:02:59.584Z,5.33
2023-01-11T08:05:31.229Z,6.30
2023-01-11T08:08:00.873Z,5.90
2023-01-11T08:10:30.829Z,6.60
2023-01-11T08:13:17.886Z,7.40
2023-01-11T08:15:48.235Z,7.17
2023-01-11T08:18:19.885Z,7.83
2023-01-11T08:20:54.814Z,6.03
2023-01-11T08:23:26.130Z,6.03
2023-01-11T08:25:59.625Z,5.57
2023-01-11T08:28:30.128Z,4.83
2023-01-11T08:31:00.364Z,4.60
2023-01-11T08:33:30.640Z,5.30
2023-01-11T08:36:06.833Z,7.10
2023-01-11T08:38:36.615Z,5.63
2023-01-11T08:41:11.050Z,8.60
2023-01-11T08:43:41.761Z,5.33
2023-01-11T08:46:12.812Z,6.17
2023-01-11T08:48:42.720Z,6.83
2023-01-11T08:51:14.998Z,6.23
2023-01-11T08:53:45.173Z,6.57
2023-01-11T08:56:15.242Z,6.57
2023-01-11T08:58:45.252Z,7.27
2023-01-11T09:01:14.996Z,6.23
2023-01-11T09:03:45.300Z,5.90
2023-01-11T09:06:19.243Z,5.43
2023-01-11T09:08:49.998Z,5.90
2023-01-11T09:11:37.419Z,6.37
2023-01-11T09:14:08.466Z,6.07
2023-01-11T09:16:38.167Z,5.10
2023-01-11T09:19:08.520Z,5.87
2023-01-11T09:21:39.819Z,5.47
2023-01-11T09:24:09.907Z,5.47
2023-01-11T09:26:41.992Z,6.60
2023-01-11T09:29:12.452Z,5.30
2023-01-11T09:31:42.647Z,6.40
2023-01-11T09:34:13.690Z,5.63
2023-01-11T09:36:47.759Z,5.30
2023-01-11T09:39:20.960Z,5.70
2023-01-11T09:42:07.663Z,4.10
2023-01-11T09:44:51.813Z,4.20
2023-01-11T09:47:36.964Z,4.33
2023-01-11T09:50:13.859Z,5.23
2023-01-11T09:52:47.670Z,4.50
2023-01-11T09:55:24.900Z,5.77
2023-01-11T09:58:29.566Z,4.40
2023-01-11T10:01:07.465Z,4.33
2023-01-11T10:04:06.556Z,4.40
2023-01-11T10:06:45.129Z,3.90
2023-01-11T10:18:33.920Z,5.60
2023-01-11T10:18:48.772Z,4.20
2023-01-11T10:21:16.224Z,6.00
2023-01-11T10:23:50.835Z,6.73
2023-01-11T10:26:32.539Z,11.93
2023-01-11T10:29:22.755Z,10.00
2023-01-11T10:32:34.843Z,9.77
2023-01-11T10:35:48.325Z,9.60
2023-01-11T10:38:44.086Z,8.77
2023-01-11T10:41:26.491Z,9.60
2023-01-11T10:44:12.701Z,8.47
2023-01-11T10:46:46.017Z,10.07
2023-01-11T10:49:34.536Z,10.27
2023-01-11T10:52:21.784Z,10.97
2023-01-11T10:54:56.248Z,10.20
2023-01-11T10:57:39.539Z,11.10
2023-01-11T11:00:36.836Z,9.47
2023-01-11T11:03:24.789Z,10.70
2023-01-11T11:05:59.471Z,11.33
2023-01-11T11:08:33.219Z,9.47
2023-01-11T11:11:08.814Z,9.30
2023-01-11T11:13:49.299Z,8.80
2023-01-11T11:16:34.573Z,10.30
2023-01-11T11:19:05.210Z,9.93
2023-01-11T11:21:39.308Z,9.97
2023-01-11T11:24:16.328Z,12.00
2023-01-11T11:26:49.219Z,11.03
2023-01-11T11:29:29.403Z,9.50
2023-01-11T11:32:02.565Z,9.30
2023-01-11T11:34:33.083Z,11.90
2023-01-11T11:37:02.897Z,10.20
2023-01-11T11:39:34.553Z,10.50
2023-01-11T11:42:10.501Z,9.73
2023-01-11T11:44:40.786Z,11.20
2023-01-11T11:47:18.128Z,10.67
2023-01-11T11:49:48.610Z,11.30
2023-01-11T11:52:20.475Z,11.53
2023-01-11T11:54:56.625Z,12.50
2023-01-11T11:57:29.130Z,10.43
2023-01-11T12:00:05.988Z,11.90
2023-01-11T12:02:47.199Z,10.10
2023-01-11T12:05:18.099Z,9.20
2023-01-11T12:07:55.060Z,11.40
2023-01-11T12:10:27.302Z,11.10
2023-01-11T12:12:58.944Z,9.83
2023-01-11T12:15:30.320Z,8.53
2023-01-11T12:18:26.109Z,9.50
2023-01-11T12:20:56.496Z,9.43
2023-01-11T12:23:28.410Z,9.00
2023-01-11T12:26:22.764Z,9.60
2023-01-11T12:29:37.188Z,9.73
2023-01-11T12:32:24.223Z,9.83
2023-01-11T12:35:26.397Z,9.93
2023-01-11T12:38:08.349Z,8.37
2023-01-11T12:40:47.219Z,9.27
2023-01-11T12:43:34.535Z,10.83
2023-01-11T12:46:10.694Z,11.40
2023-01-11T12:48:55.901Z,9.43
2023-01-11T12:51:39.234Z,10.60
2023-01-11T12:54:28.313Z,9.33
2023-01-11T12:57:09.007Z,9.93
2023-01-11T13:00:03.871Z,9.43
2023-01-11T13:03:13.479Z,9.27
2023-01-11T13:05:54.099Z,9.10
2023-01-11T13:08:32.898Z,10.10
2023-01-11T13:11:12.207Z,10.93
2023-01-11T13:13:53.063Z,9.23
2023-01-11T13:16:27.964Z,8.87
2023-01-11T13:19:02.062Z,8.10
2023-01-11T13:21:34.886Z,8.10
2023-01-11T13:24:10.393Z,7.97
2023-01-11T13:26:42.742Z,8.40
2023-01-11T13:29:16.971Z,8.77
2023-01-11T13:31:48.555Z,7.60
2023-01-11T13:34:22.078Z,7.50
2023-01-11T13:36:55.479Z,9.10
2023-01-11T13:39:31.175Z,9.10
2023-01-11T13:42:05.581Z,7.53
2023-01-11T13:44:39.041Z,6.90
2023-01-11T13:47:11.072Z,5.70
2023-01-11T13:49:51.460Z,7.10
2023-01-11T13:52:24.562Z,6.43
2023-01-11T13:55:03.194Z,6.63
2023-01-11T13:57:38.992Z,6.73
2023-01-11T14:00:20.593Z,7.37
2023-01-11T14:02:54.782Z,7.50
2023-01-11T14:05:25.456Z,7.20
2023-01-11T14:08:09.768Z,9.13
2023-01-11T14:10:49.049Z,8.23
2023-01-11T14:13:51.338Z,9.23
2023-01-11T14:16:26.696Z,9.03
2023-01-11T14:19:01.644Z,7.20
2023-01-11T14:21:40.895Z,9.10
2023-01-11T14:24:12.528Z,8.13
2023-01-11T14:27:02.005Z,7.23
2023-01-11T14:30:00.055Z,7.67
2023-01-11T14:33:00.661Z,7.10
2023-01-11T14:35:53.952Z,7.07
2023-01-11T14:38:42.128Z,7.50
2023-01-11T14:41:37.886Z,7.07
2023-01-11T14:44:19.656Z,7.30
2023-01-11T14:47:08.720Z,7.00
2023-01-11T14:49:53.761Z,7.43
2023-01-11T14:52:39.130Z,6.87
2023-01-11T14:55:18.117Z,6.93
2023-01-11T14:58:06.910Z,6.40
2023-01-11T15:01:15.058Z,5.43
2023-01-11T15:03:58.106Z,5.40
2023-01-11T15:06:33.641Z,6.63
2023-01-11T15:09:04.007Z,5.50
2023-01-11T15:11:39.276Z,5.37
2023-01-11T15:14:26.158Z,4.83
2023-01-11T15:17:15.797Z,7.37
2023-01-11T15:19:49.450Z,5.03
2023-01-11T15:22:28.005Z,6.50
2023-01-11T15:25:01.384Z,6.33
2023-01-11T15:27:35.565Z,5.27
2023-01-11T15:30:09.321Z,5.70
2023-01-11T15:32:41.823Z,4.57
2023-01-11T15:35:37.581Z,5.67
2023-01-11T15:38:14.367Z,5.27
2023-01-11T15:40:46.916Z,5.93
2023-01-11T15:43:50.845Z,6.30
2023-01-11T15:46:54.698Z,5.87
2023-01-11T15:49:45.740Z,5.73
2023-01-11T15:52:53.112Z,6.07
2023-01-11T15:55:58.658Z,5.77
2023-01-11T15:58:58.233Z,4.30
2023-01-11T16:01:29.751Z,7.83
2023-01-11T16:04:06.769Z,16.53
2023-01-11T16:06:45.521Z,28.57
2023-01-11T16:09:46.221Z,25.13
2023-01-11T16:12:57.610Z,22.70
2023-01-11T16:15:38.730Z,20.63
2023-01-11T16:18:16.277Z,19.60
2023-01-11T16:20:57.537Z,20.50
2023-01-11T16:23:28.151Z,19.33
2023-01-11T16:25:59.448Z,17.37
2023-01-11T16:28:30.242Z,21.93
2023-01-11T16:31:02.829Z,22.20
2023-01-11T16:33:35.569Z,25.30
2023-01-11T16:36:14.173Z,23.33
2023-01-11T16:39:02.172Z,22.50
2023-01-11T16:41:36.686Z,20.73
2023-01-11T16:44:09.884Z,22.53
2023-01-11T16:47:09.301Z,23.13
2023-01-11T16:49:40.989Z,20.30
2023-01-11T16:52:38.103Z,20.67
2023-01-11T16:55:40.375Z,20.67
2023-01-11T16:58:22.128Z,21.40
2023-01-11T17:01:00.685Z,22.67
2023-01-11T17:03:31.926Z,20.97
2023-01-11T17:06:16.134Z,21.13
2023-01-11T17:08:47.412Z,20.90
2023-01-11T17:11:27.188Z,19.50
2023-01-11T17:14:11.998Z,19.40
2023-01-11T17:16:43.504Z,21.23
2023-01-11T17:19:17.926Z,19.20
2023-01-11T17:21:54.156Z,18.93
2023-01-11T17:24:26.342Z,23.07
2023-01-11T17:26:58.932Z,24.47
2023-01-11T17:29:31.491Z,25.20
2023-01-11T17:32:03.465Z,26.77
2023-01-11T17:34:35.774Z,26.23
2023-01-11T17:37:10.941Z,25.47
2023-01-11T17:39:45.083Z,25.67
2023-01-11T17:42:33.005Z,23.87
2023-01-11T17:45:15.222Z,23.60
2023-01-11T17:47:47.753Z,22.30
2023-01-11T17:50:30.575Z,21.37
2023-01-11T17:53:16.374Z,18.80
2023-01-11T17:55:54.402Z,20.43
2023-01-11T17:58:28.656Z,18.77
2023-01-11T18:01:20.354Z,20.00
2023-01-11T18:03:52.475Z,17.40
2023-01-11T18:06:28.525Z,19.57
2023-01-11T18:09:00.732Z,17.10
2023-01-11T18:11:32.809Z,16.57
2023-01-11T18:14:05.083Z,17.23
2023-01-11T18:16:35.644Z,16.50
2023-01-11T18:19:25.225Z,15.47
2023-01-11T18:21:56.676Z,15.70
2023-01-11T18:24:34.897Z,15.27
2023-01-11T18:27:24.463Z,15.07
2023-01-11T18:29:55.074Z,15.50
2023-01-11T18:32:25.569Z,13.40
2023-01-11T18:34:56.668Z,16.57
2023-01-11T18:37:26.913Z,16.97
2023-01-11T18:39:59.451Z,17.20
2023-01-11T18:42:32.944Z,17.43
2023-01-11T18:45:02.654Z,20.97
2023-01-11T18:47:32.943Z,18.93
2023-01-11T18:50:02.690Z,21.67
2023-01-11T18:52:33.086Z,21.90
2023-01-11T18:55:04.314Z,21.00
2023-01-11T18:57:34.293Z,20.10
2023-01-11T19:00:04.869Z,22.30
2023-01-11T19:02:42.547Z,20.97
2023-01-11T19:05:15.092Z,23.50
2023-01-11T19:07:45.253Z,26.67
2023-01-11T19:10:19.257Z,26.07
2023-01-11T19:12:49.588Z,22.93
2023-01-11T19:15:20.259Z,24.53
2023-01-11T19:17:49.796Z,27.13
2023-01-11T19:20:20.098Z,29.67
2023-01-11T19:22:50.485Z,28.63
2023-01-11T19:25:23.073Z,30.30
2023-01-11T19:27:54.978Z,30.17
2023-01-11T19:30:24.769Z,30.10
2023-01-11T19:32:55.188Z,30.20
2023-01-11T19:35:25.428Z,32.80
2023-01-11T19:37:56.077Z,30.07
2023-01-11T19:40:27.816Z,30.97
2023-01-11T19:42:58.289Z,32.43
2023-01-11T19:45:27.909Z,28.83
2023-01-11T19:47:58.381Z,28.30
2023-01-11T19:50:28.618Z,24.60
2023-01-11T19:52:58.503Z,25.37
2023-01-11T19:55:29.649Z,28.20
2023-01-11T19:57:59.282Z,26.77
2023-01-11T20:00:29.138Z,28.00
2023-01-11T20:03:05.240Z,23.67
2023-01-11T20:05:35.432Z,21.93
2023-01-11T20:08:05.559Z,23.83
2023-01-11T20:10:37.319Z,23.73
2023-01-11T20:13:06.996Z,21.77
2023-01-11T20:15:39.863Z,23.30
2023-01-11T20:18:10.174Z,19.50
2023-01-11T20:20:39.913Z,22.53
2023-01-11T20:23:09.941Z,23.70
2023-01-11T20:25:41.435Z,23.80
2023-01-11T20:28:11.387Z,24.00
2023-01-11T20:30:42.629Z,22.57
2023-01-11T20:33:12.037Z,24.50
2023-01-11T20:35:42.158Z,23.80
2023-01-11T20:38:12.552Z,24.87
2023-01-11T20:40:43.983Z,26.30
2023-01-11T20:43:15.490Z,23.73
2023-01-11T20:45:45.887Z,25.83
2023-01-11T20:48:15.973Z,24.20
2023-01-11T20:50:46.453Z,24.10
2023-01-11T20:53:16.807Z,22.63
2023-01-11T20:55:50.333Z,24.63
2023-01-11T20:58:19.798Z,23.77
2023-01-11T21:00:49.669Z,24.57
2023-01-11T21:03:20.809Z,22.43
2023-01-11T21:05:53.813Z,22.23
2023-01-11T21:08:23.901Z,20.43
2023-01-11T21:10:55.599Z,21.30
2023-01-11T21:13:25.458Z,20.53
2023-01-11T21:15:58.005Z,22.87
2023-01-11T21:18:27.525Z,21.17
2023-01-11T21:20:57.718Z,19.23
2023-01-11T21:23:27.699Z,19.53
2023-01-11T21:26:00.687Z,20.90
2023-01-11T21:28:30.459Z,20.50
2023-01-11T21:31:05.874Z,22.63
2023-01-11T21:33:37.429Z,25.63
2023-01-11T21:36:09.683Z,26.73
2023-01-11T21:38:39.605Z,25.00
2023-01-11T21:41:12.751Z,24.87
2023-01-11T21:43:43.773Z,26.20
2023-01-11T21:46:14.030Z,23.50
2023-01-11T21:48:43.693Z,24.07
2023-01-11T21:51:16.883Z,23.17
2023-01-11T21:53:47.559Z,23.60
2023-01-11T21:56:19.584Z,20.17
2023-01-11T21:58:50.592Z,20.40
2023-01-11T22:01:21.850Z,19.30
2023-01-11T22:03:51.855Z,18.37
2023-01-11T22:06:22.964Z,20.13
2023-01-11T22:08:52.709Z,19.20
2023-01-11T22:11:24.176Z,20.10
2023-01-11T22:13:53.729Z,19.53
2023-01-11T22:16:23.858Z,17.67
2023-01-11T22:18:53.655Z,19.20
2023-01-11T22:21:23.410Z,19.77
2023-01-11T22:23:56.556Z,21.20
2023-01-11T22:26:30.295Z,22.77
2023-01-11T22:29:18.710Z,22.93
2023-01-11T22:31:51.548Z,23.30
2023-01-11T22:34:22.475Z,23.47
2023-01-11T22:36:53.988Z,21.13
2023-01-11T22:39:24.448Z,23.60
2023-01-11T22:41:57.183Z,24.63
2023-01-11T22:44:26.939Z,24.37
2023-01-11T22:46:56.766Z,25.67
2023-01-11T22:49:27.486Z,22.07
2023-01-11T22:51:58.428Z,22.97
2023-01-11T22:54:28.857Z,20.83
2023-01-11T22:57:00.370Z,20.97
2023-01-11T22:59:31.743Z,18.97
2023-01-11T23:02:02.169Z,18.27
2023-01-11T23:04:33.775Z,18.63
2023-01-11T23:07:03.788Z,17.40
2023-01-11T23:09:33.496Z,18.23
2023-01-11T23:12:22.433Z,16.40
2023-01-11T23:14:53.012Z,18.30
2023-01-11T23:17:23.474Z,16.73
2023-01-11T23:19:54.536Z,19.50
2023-01-11T23:22:24.764Z,17.30
2023-01-11T23:24:54.795Z,18.60
2023-01-11T23:27:26.529Z,17.10
2023-01-11T23:29:57.258Z,16.97
2023-01-11T23:32:29.173Z,18.30
2023-01-11T23:34:59.128Z,17.13
2023-01-11T23:37:29.115Z,18.90
2023-01-11T23:39:59.333Z,15.77
2023-01-11T23:42:29.943Z,16.73
2023-01-11T23:44:59.754Z,17.10
2023-01-11T23:47:30.079Z,15.40
2023-01-11T23:50:02.236Z,15.00
2023-01-11T23:52:34.533Z,16.70
2023-01-11T23:55:05.104Z,16.50
2023-01-11T23:57:36.959Z,18.00
